AAL874 KSAT-MMMY
Flight info
| Callsign | AAL874 |
|---|---|
| Flight time | N/A |
| Altitude | 34000 |
| Route | TJANO2 KAHAN DCT LRD DCT NOTAL NOTAL1A |
| Aircraft | B738/M-SDE2E3FGHIRWXY/LB1 |
Departure
| Time | 2026-05-03 22:13 |
|---|---|
| Airport | San Antonio International Airport (KSAT) |
Arrival
| Time | N/A |
|---|---|
| Airport | Monterrey International Airport (MMMY) |
| Time | Latitude | Longitude | Altitude | Speed | Heading |
|---|---|---|---|---|---|
| 2026-05-03 21:44 | 29.52529 | -98.47166 | 818 ft | 0 kts | 324° |
| 2026-05-03 22:02 | 29.52528 | -98.47166 | 818 ft | 0 kts | 324° |
| 2026-05-03 22:02 | 29.52521 | -98.47160 | 818 ft | 2 kts | 324° |
| 2026-05-03 22:03 | 29.52509 | -98.47150 | 818 ft | 2 kts | 324° |
| 2026-05-03 22:03 | 29.52496 | -98.47141 | 818 ft | 2 kts | 338° |
| 2026-05-03 22:03 | 29.52482 | -98.47135 | 818 ft | 2 kts | 348° |
| 2026-05-03 22:03 | 29.52467 | -98.47133 | 818 ft | 2 kts | 0° |
| 2026-05-03 22:04 | 29.52452 | -98.47134 | 818 ft | 2 kts | 12° |
| 2026-05-03 22:04 | 29.52437 | -98.47140 | 818 ft | 2 kts | 24° |
| 2026-05-03 22:04 | 29.52424 | -98.47147 | 818 ft | 2 kts | 35° |
| 2026-05-03 22:04 | 29.52414 | -98.47157 | 818 ft | 1 kts | 43° |
| 2026-05-03 22:05 | 29.52410 | -98.47161 | 818 ft | 0 kts | 41° |
| 2026-05-03 22:07 | 29.52441 | -98.47130 | 818 ft | 14 kts | 41° |
| 2026-05-03 22:07 | 29.52523 | -98.47048 | 818 ft | 18 kts | 40° |
| 2026-05-03 22:07 | 29.52624 | -98.46950 | 818 ft | 18 kts | 41° |
| 2026-05-03 22:08 | 29.52716 | -98.46875 | 818 ft | 13 kts | 2° |
| 2026-05-03 22:08 | 29.52795 | -98.46911 | 818 ft | 11 kts | 8° |
| 2026-05-03 22:08 | 29.52866 | -98.46937 | 818 ft | 12 kts | 312° |
| 2026-05-03 22:08 | 29.52944 | -98.47031 | 818 ft | 18 kts | 313° |
| 2026-05-03 22:09 | 29.53050 | -98.47166 | 818 ft | 23 kts | 313° |
| 2026-05-03 22:09 | 29.53156 | -98.47304 | 819 ft | 22 kts | 311° |
| 2026-05-03 22:09 | 29.53262 | -98.47437 | 819 ft | 22 kts | 311° |
| 2026-05-03 22:10 | 29.53482 | -98.47723 | 819 ft | 24 kts | 311° |
| 2026-05-03 22:10 | 29.53595 | -98.47869 | 819 ft | 23 kts | 312° |
| 2026-05-03 22:10 | 29.53702 | -98.48009 | 819 ft | 22 kts | 313° |
| 2026-05-03 22:10 | 29.53807 | -98.48143 | 819 ft | 22 kts | 311° |
| 2026-05-03 22:11 | 29.53908 | -98.48273 | 819 ft | 21 kts | 312° |
| 2026-05-03 22:11 | 29.54006 | -98.48400 | 819 ft | 20 kts | 311° |
| 2026-05-03 22:11 | 29.54101 | -98.48515 | 819 ft | 18 kts | 333° |
| 2026-05-03 22:11 | 29.54177 | -98.48489 | 819 ft | 11 kts | 59° |
| 2026-05-03 22:12 | 29.54164 | -98.48413 | 819 ft | 11 kts | 129° |
| 2026-05-03 22:12 | 29.54040 | -98.48251 | 819 ft | 57 kts | 131° |
| 2026-05-03 22:12 | 29.53620 | -98.47710 | 819 ft | 121 kts | 132° |
| 2026-05-03 22:12 | 29.52941 | -98.46838 | 923 ft | 161 kts | 132° |
| 2026-05-03 22:13 | 29.52180 | -98.45896 | 1504 ft | 166 kts | 133° |
| 2026-05-03 22:13 | 29.51374 | -98.44910 | 2113 ft | 171 kts | 133° |
| 2026-05-03 22:13 | 29.50580 | -98.43964 | 2787 ft | 164 kts | 135° |
| 2026-05-03 22:13 | 29.49785 | -98.43018 | 3284 ft | 166 kts | 132° |
| 2026-05-03 22:14 | 29.48984 | -98.41986 | 3637 ft | 178 kts | 132° |
| 2026-05-03 22:14 | 29.48137 | -98.40886 | 3937 ft | 196 kts | 131° |
| 2026-05-03 22:14 | 29.47193 | -98.39655 | 4321 ft | 211 kts | 132° |
| 2026-05-03 22:14 | 29.46184 | -98.38332 | 4705 ft | 226 kts | 131° |
| 2026-05-03 22:15 | 29.45123 | -98.36942 | 5070 ft | 241 kts | 133° |
| 2026-05-03 22:15 | 29.43737 | -98.35803 | 5378 ft | 257 kts | 162° |
| 2026-05-03 22:15 | 29.41928 | -98.35726 | 5758 ft | 270 kts | 196° |
| 2026-05-03 22:15 | 29.40436 | -98.36688 | 6312 ft | 275 kts | 220° |
| 2026-05-03 22:16 | 29.39025 | -98.38300 | 6968 ft | 279 kts | 225° |
| 2026-05-03 22:16 | 29.37620 | -98.39848 | 7633 ft | 282 kts | 220° |
| 2026-05-03 22:16 | 29.36110 | -98.41280 | 8307 ft | 285 kts | 217° |
| 2026-05-03 22:16 | 29.34530 | -98.42648 | 8991 ft | 287 kts | 216° |
| 2026-05-03 22:17 | 29.32901 | -98.44009 | 9687 ft | 290 kts | 215° |
| 2026-05-03 22:17 | 29.31265 | -98.45370 | 10338 ft | 296 kts | 216° |
| 2026-05-03 22:17 | 29.29552 | -98.46801 | 10729 ft | 311 kts | 216° |
| 2026-05-03 22:17 | 29.27757 | -98.48307 | 11113 ft | 326 kts | 216° |
| 2026-05-03 22:18 | 29.25899 | -98.49867 | 11500 ft | 340 kts | 217° |
| 2026-05-03 22:18 | 29.23968 | -98.51488 | 12094 ft | 347 kts | 217° |
| 2026-05-03 22:18 | 29.22022 | -98.53123 | 12763 ft | 351 kts | 218° |
| 2026-05-03 22:18 | 29.20030 | -98.54807 | 13446 ft | 355 kts | 218° |
| 2026-05-03 22:19 | 29.18041 | -98.56482 | 14101 ft | 359 kts | 219° |
| 2026-05-03 22:19 | 29.16031 | -98.58175 | 14752 ft | 363 kts | 219° |
| 2026-05-03 22:19 | 29.13967 | -98.59911 | 15413 ft | 367 kts | 219° |
| 2026-05-03 22:19 | 29.11902 | -98.61646 | 16065 ft | 371 kts | 220° |
| 2026-05-03 22:20 | 29.09808 | -98.63400 | 16708 ft | 374 kts | 220° |
| 2026-05-03 22:20 | 29.07697 | -98.65171 | 17337 ft | 377 kts | 220° |
| 2026-05-03 22:20 | 29.05588 | -98.66939 | 17945 ft | 380 kts | 220° |
| 2026-05-03 22:20 | 29.03438 | -98.68742 | 18568 ft | 383 kts | 220° |
| 2026-05-03 22:21 | 29.01283 | -98.70546 | 19177 ft | 385 kts | 221° |
| 2026-05-03 22:21 | 28.99116 | -98.72358 | 19774 ft | 388 kts | 221° |
| 2026-05-03 22:21 | 28.96961 | -98.74159 | 20356 ft | 390 kts | 221° |
| 2026-05-03 22:21 | 28.94740 | -98.76015 | 20948 ft | 392 kts | 221° |
| 2026-05-03 22:22 | 28.92543 | -98.77850 | 21523 ft | 394 kts | 222° |
| 2026-05-03 22:22 | 28.90321 | -98.79705 | 22092 ft | 396 kts | 222° |
| 2026-05-03 22:22 | 28.88088 | -98.81569 | 22649 ft | 398 kts | 222° |
| 2026-05-03 22:22 | 28.85843 | -98.83444 | 23192 ft | 400 kts | 223° |
| 2026-05-03 22:23 | 28.83597 | -98.85317 | 23722 ft | 401 kts | 223° |
| 2026-05-03 22:23 | 28.81326 | -98.87174 | 24238 ft | 405 kts | 221° |
| 2026-05-03 22:23 | 28.78962 | -98.88892 | 24749 ft | 409 kts | 218° |
| 2026-05-03 22:23 | 28.76496 | -98.90531 | 25245 ft | 413 kts | 217° |
| 2026-05-03 22:24 | 28.73994 | -98.92133 | 25704 ft | 416 kts | 217° |
| 2026-05-03 22:24 | 28.71438 | -98.93748 | 26164 ft | 420 kts | 217° |
| 2026-05-03 22:24 | 28.68881 | -98.95367 | 26619 ft | 423 kts | 217° |
| 2026-05-03 22:24 | 28.66282 | -98.97020 | 27064 ft | 425 kts | 218° |
| 2026-05-03 22:25 | 28.63712 | -98.98665 | 27489 ft | 428 kts | 218° |
| 2026-05-03 22:25 | 28.61118 | -99.00332 | 27912 ft | 431 kts | 218° |
| 2026-05-03 22:25 | 28.58500 | -99.02020 | 28367 ft | 432 kts | 219° |
| 2026-05-03 22:25 | 28.55866 | -99.03722 | 28801 ft | 435 kts | 219° |
| 2026-05-03 22:26 | 28.53255 | -99.05411 | 29213 ft | 438 kts | 219° |
| 2026-05-03 22:26 | 28.50591 | -99.07137 | 29639 ft | 440 kts | 219° |
| 2026-05-03 22:26 | 28.47923 | -99.08860 | 30273 ft | 436 kts | 219° |
| 2026-05-03 22:26 | 28.45315 | -99.10541 | 30807 ft | 435 kts | 220° |
| 2026-05-03 22:27 | 28.42686 | -99.12238 | 31347 ft | 434 kts | 220° |
| 2026-05-03 22:27 | 28.40069 | -99.13927 | 31865 ft | 433 kts | 220° |
| 2026-05-03 22:27 | 28.37436 | -99.15627 | 32375 ft | 432 kts | 220° |
| 2026-05-03 22:27 | 28.34800 | -99.17329 | 32873 ft | 431 kts | 220° |
| 2026-05-03 22:28 | 28.32180 | -99.19003 | 33350 ft | 431 kts | 220° |
| 2026-05-03 22:28 | 28.29480 | -99.20597 | 33826 ft | 436 kts | 216° |
| 2026-05-03 22:28 | 28.26626 | -99.21905 | 34010 ft | 450 kts | 209° |
| 2026-05-03 22:29 | 28.20491 | -99.23689 | 33981 ft | 454 kts | 202° |
| 2026-05-03 22:29 | 28.14243 | -99.25002 | 33979 ft | 457 kts | 201° |
| 2026-05-03 22:30 | 28.07990 | -99.26259 | 33907 ft | 455 kts | 201° |
| 2026-05-03 22:30 | 28.01766 | -99.27551 | 33906 ft | 457 kts | 201° |
| 2026-05-03 22:31 | 27.95483 | -99.28893 | 33928 ft | 457 kts | 201° |
| 2026-05-03 22:31 | 27.89222 | -99.30247 | 33929 ft | 456 kts | 201° |
| 2026-05-03 22:32 | 27.83005 | -99.31600 | 33924 ft | 456 kts | 201° |
| 2026-05-03 22:32 | 27.76750 | -99.32971 | 33922 ft | 455 kts | 202° |
| 2026-05-03 22:33 | 27.70641 | -99.34637 | 33925 ft | 450 kts | 205° |
| 2026-05-03 22:33 | 27.64587 | -99.36535 | 33922 ft | 449 kts | 206° |
| 2026-05-03 22:34 | 27.58552 | -99.38442 | 33918 ft | 450 kts | 206° |
| 2026-05-03 22:34 | 27.52488 | -99.40332 | 33915 ft | 450 kts | 207° |
| 2026-05-03 22:35 | 27.46845 | -99.42969 | 33912 ft | 432 kts | 220° |
| 2026-05-03 22:35 | 27.41892 | -99.46684 | 33911 ft | 422 kts | 227° |
| 2026-05-03 22:36 | 27.37239 | -99.50706 | 33912 ft | 420 kts | 229° |
| 2026-05-03 22:36 | 27.32638 | -99.54763 | 33916 ft | 420 kts | 229° |
| 2026-05-03 22:37 | 27.28045 | -99.58778 | 33937 ft | 420 kts | 228° |
| 2026-05-03 22:37 | 27.23405 | -99.62800 | 33968 ft | 421 kts | 228° |
| 2026-05-03 22:38 | 27.18754 | -99.66808 | 33982 ft | 422 kts | 227° |
| 2026-05-03 22:38 | 27.14087 | -99.70813 | 33983 ft | 420 kts | 227° |
| 2026-05-03 22:39 | 27.09455 | -99.74781 | 33982 ft | 420 kts | 227° |
| 2026-05-03 22:39 | 27.04819 | -99.78751 | 33981 ft | 421 kts | 227° |
| 2026-05-03 22:40 | 27.00153 | -99.82742 | 33981 ft | 421 kts | 227° |
| 2026-05-03 22:40 | 26.95479 | -99.86736 | 33981 ft | 422 kts | 227° |
| 2026-05-03 22:41 | 26.90790 | -99.90738 | 33982 ft | 422 kts | 227° |
| 2026-05-03 22:41 | 26.86096 | -99.94739 | 33984 ft | 422 kts | 227° |
| 2026-05-03 22:42 | 26.81436 | -99.98705 | 33988 ft | 422 kts | 227° |
| 2026-05-03 22:42 | 26.76749 | -100.02693 | 33992 ft | 422 kts | 227° |